Time;durP1;ratioP1;P1;durP2;ratioP2;P2;SDS_P1;SDS_P2;PMS_P1;PMS_P2;Temp;Humidity;BMP_temperature;BMP_pressure;BME280_temperature;BME280_humidity;BME280_pressure;Samples;Min_cycle;Max_cycle;Signal;HPM_P1;HPM_P2
2022/10/27 00:00:42;;;;;;;7.47;4.00;;;17.20;99.90;;;;;;5009296;28;20026;-83
2022/10/27 00:03:12;;;;;;;9.55;4.07;;;17.20;99.90;;;;;;5034119;28;20387;-84
2022/10/27 00:19:30;;;;;;;7.53;3.80;;;17.10;99.90;;;;;;5000751;28;20052;-83
2022/10/27 00:21:56;;;;;;;8.38;4.20;;;17.00;99.90;;;;;;5002694;28;20494;-83
2022/10/27 00:24:21;;;;;;;12.38;4.78;;;17.00;99.90;;;;;;5009069;28;20104;-83
2022/10/27 00:26:47;;;;;;;7.88;4.05;;;17.00;99.90;;;;;;5002231;28;20482;-83
2022/10/27 00:29:13;;;;;;;7.38;3.80;;;17.00;99.90;;;;;;5008095;28;20460;-83
2022/10/27 00:31:47;;;;;;;10.98;4.28;;;16.90;99.90;;;;;;4991062;28;20026;-83
2022/10/27 00:34:13;;;;;;;10.43;4.00;;;17.00;99.90;;;;;;4999562;28;20483;-83
2022/10/27 00:36:39;;;;;;;8.00;4.10;;;16.90;99.90;;;;;;5015838;28;20107;-83
2022/10/27 00:39:04;;;;;;;9.07;3.75;;;16.90;99.90;;;;;;5035445;28;20017;-83
2022/10/27 00:41:32;;;;;;;7.85;3.65;;;16.90;99.90;;;;;;5009669;28;20203;-83
2022/10/27 00:44:00;;;;;;;9.85;3.90;;;16.90;99.90;;;;;;5051052;28;20028;-83
2022/10/27 00:46:39;;;;;;;7.53;4.00;;;16.80;99.90;;;;;;5035487;28;20025;-83
2022/10/27 00:49:16;;;;;;;8.80;3.70;;;16.80;99.90;;;;;;5003185;28;20554;-83
2022/10/27 00:51:50;;;;;;;7.38;4.18;;;16.70;99.90;;;;;;5035444;28;20020;-83
2022/10/27 00:57:43;;;;;;;6.55;4.00;;;16.70;99.90;;;;;;5050666;28;20052;-83
2022/10/27 01:00:09;;;;;;;;;;;16.70;99.90;;;;;;5046058;28;20390;-83
2022/10/27 01:02:35;;;;;;;9.30;3.90;;;16.60;99.90;;;;;;5022046;28;19905;-83
2022/10/27 01:05:11;;;;;;;8.40;4.07;;;16.60;99.90;;;;;;5035265;28;20017;-83
2022/10/27 01:07:38;;;;;;;8.20;3.92;;;16.50;99.90;;;;;;5035170;28;20029;-83
2022/10/27 01:10:04;;;;;;;7.65;3.85;;;16.60;99.90;;;;;;5018802;28;20017;-83
2022/10/27 01:12:34;;;;;;;9.00;4.57;;;16.50;99.90;;;;;;5034923;28;20363;-83
2022/10/27 01:15:00;;;;;;;7.90;3.72;;;16.50;99.90;;;;;;4998954;28;20017;-83
2022/10/27 01:18:05;;;;;;;7.97;3.75;;;16.50;99.90;;;;;;5033045;28;20386;-83
2022/10/27 01:20:39;;;;;;;6.53;4.07;;;16.40;99.90;;;;;;4998331;28;20050;-83
2022/10/27 01:23:36;;;;;;;10.05;4.50;;;16.40;99.90;;;;;;5022178;28;20424;-83
2022/10/27 01:26:20;;;;;;;7.65;3.65;;;16.40;99.90;;;;;;4977941;28;20114;-83
2022/10/27 01:29:10;;;;;;;7.97;3.70;;;16.40;99.90;;;;;;5003303;28;20041;-83
2022/10/27 01:31:42;;;;;;;7.88;3.78;;;16.30;99.90;;;;;;5015070;28;20124;-83
2022/10/27 01:34:38;;;;;;;10.15;4.60;;;16.30;99.90;;;;;;5033326;28;20029;-83
2022/10/27 01:37:35;;;;;;;8.43;3.92;;;16.30;99.90;;;;;;5010708;28;20046;-83
2022/10/27 01:40:31;;;;;;;6.00;3.95;;;16.20;99.90;;;;;;5014230;28;20050;-83
2022/10/27 01:43:05;;;;;;;9.98;4.32;;;16.20;99.90;;;;;;5015115;28;20042;-83
2022/10/27 01:45:35;;;;;;;9.73;4.03;;;16.20;99.90;;;;;;5017792;28;20534;-83
2022/10/27 01:48:01;;;;;;;8.80;3.63;;;16.20;99.90;;;;;;5036790;28;20022;-83
2022/10/27 01:50:31;;;;;;;6.13;3.40;;;16.10;99.90;;;;;;5004783;28;20032;-83
2022/10/27 01:52:56;;;;;;;9.50;3.42;;;16.10;99.90;;;;;;5015278;28;20049;-83
2022/10/27 01:55:25;;;;;;;11.02;3.53;;;16.10;99.90;;;;;;5015864;28;20029;-84
2022/10/27 01:58:13;;;;;;;7.43;3.42;;;16.00;99.90;;;;;;5018587;28;20036;-84
2022/10/27 02:01:00;;;;;;;5.72;3.58;;;16.00;99.90;;;;;;5036626;28;20029;-84
2022/10/27 02:03:46;;;;;;;8.95;3.95;;;16.00;99.90;;;;;;5035671;28;20075;-84
2022/10/27 02:06:20;;;;;;;6.63;4.05;;;16.00;99.90;;;;;;5018690;28;20021;-84
2022/10/27 02:08:57;;;;;;;9.10;4.53;;;16.00;99.90;;;;;;5019103;28;20363;-84
2022/10/27 02:11:22;;;;;;;9.35;4.22;;;16.00;99.90;;;;;;5013564;28;20029;-83
2022/10/27 02:13:48;;;;;;;6.70;4.22;;;16.00;99.90;;;;;;4988023;28;20022;-83
2022/10/27 02:16:21;;;;;;;7.25;4.20;;;16.00;99.90;;;;;;5018122;28;20502;-84
2022/10/27 02:18:52;;;;;;;7.47;4.32;;;16.00;99.90;;;;;;5027028;28;20037;-83
2022/10/27 02:21:23;;;;;;;9.40;4.05;;;15.90;99.90;;;;;;5037276;28;20020;-83
2022/10/27 02:23:49;;;;;;;7.50;4.05;;;15.90;99.90;;;;;;5055736;28;20370;-83
2022/10/27 02:26:47;;;;;;;9.18;4.30;;;16.00;99.90;;;;;;5034658;28;20022;-83
2022/10/27 02:29:24;;;;;;;6.88;4.40;;;15.90;99.90;;;;;;5031374;28;20025;-83
2022/10/27 02:31:53;;;;;;;10.02;4.97;;;15.90;99.90;;;;;;5038043;28;20025;-83
2022/10/27 02:34:20;;;;;;;7.82;4.40;;;15.90;99.90;;;;;;5035322;28;20022;-84
2022/10/27 02:36:46;;;;;;;7.53;5.03;;;15.90;99.90;;;;;;5021130;28;20037;-83
2022/10/27 02:39:12;;;;;;;8.55;4.45;;;15.90;99.90;;;;;;5021943;28;20474;-84
2022/10/27 02:41:37;;;;;;;11.70;4.30;;;15.90;99.90;;;;;;5037307;28;20104;-83
2022/10/27 02:44:03;;;;;;;9.75;4.88;;;15.90;99.90;;;;;;5037268;28;20120;-84
2022/10/27 02:46:29;;;;;;;9.18;4.65;;;15.90;99.90;;;;;;5037348;28;20137;-83
2022/10/27 02:48:54;;;;;;;8.90;4.53;;;15.80;99.90;;;;;;5043353;28;20467;-83
2022/10/27 02:51:20;;;;;;;11.52;5.38;;;15.80;99.90;;;;;;5042013;28;20032;-83
2022/10/27 02:53:46;;;;;;;9.02;4.90;;;15.80;99.90;;;;;;5021089;28;20041;-83
2022/10/27 02:56:11;;;;;;;8.20;4.88;;;15.80;99.90;;;;;;5007177;28;20042;-83
2022/10/27 02:58:37;;;;;;;9.57;5.15;;;15.80;99.90;;;;;;5035536;28;20026;-83
2022/10/27 03:01:03;;;;;;;12.13;5.32;;;15.80;99.90;;;;;;5019239;28;20536;-83
2022/10/27 03:03:28;;;;;;;8.43;4.43;;;15.80;99.90;;;;;;5020697;28;20616;-83
2022/10/27 03:05:54;;;;;;;8.77;4.85;;;15.80;99.90;;;;;;5020762;28;20024;-83
2022/10/27 03:08:38;;;;;;;8.45;4.93;;;15.80;99.90;;;;;;5020526;28;20040;-82
2022/10/27 03:11:04;;;;;;;9.55;5.20;;;15.70;99.90;;;;;;5024291;28;20175;-83
2022/10/27 03:13:29;;;;;;;10.38;5.65;;;15.70;99.90;;;;;;5016595;28;20482;-83
2022/10/27 03:15:55;;;;;;;9.80;5.70;;;15.70;99.90;;;;;;5015103;28;20030;-83
2022/10/27 03:18:20;;;;;;;10.88;6.00;;;15.70;99.90;;;;;;5036634;28;20049;-83
2022/10/27 03:20:46;;;;;;;10.05;5.45;;;15.70;99.90;;;;;;5017059;28;20026;-83
2022/10/27 03:23:13;;;;;;;7.55;5.25;;;15.70;99.90;;;;;;5020270;28;20463;-83
2022/10/27 03:25:43;;;;;;;11.45;5.20;;;15.70;99.90;;;;;;5020503;28;20048;-83
2022/10/27 03:28:12;;;;;;;12.40;5.97;;;15.70;99.90;;;;;;5007515;28;20120;-83
2022/10/27 03:30:38;;;;;;;13.73;5.18;;;15.60;99.90;;;;;;5054431;28;20040;-83
2022/10/27 03:33:04;;;;;;;9.38;5.35;;;15.60;99.90;;;;;;5051112;28;20017;-83
2022/10/27 03:35:30;;;;;;;9.75;5.45;;;15.60;99.90;;;;;;5030598;28;20021;-83
2022/10/27 03:38:00;;;;;;;14.52;6.00;;;15.60;99.90;;;;;;5001127;28;20099;-83
2022/10/27 03:40:27;;;;;;;10.82;5.55;;;15.60;99.90;;;;;;5019909;28;20065;-83
2022/10/27 03:42:57;;;;;;;9.52;5.00;;;15.60;99.90;;;;;;4999024;28;20471;-83
2022/10/27 03:45:26;;;;;;;9.07;5.20;;;15.60;99.90;;;;;;5051462;28;20032;-83
2022/10/27 03:48:02;;;;;;;10.63;5.65;;;15.60;99.90;;;;;;5020276;28;20032;-83
2022/10/27 03:50:28;;;;;;;11.95;5.22;;;15.60;99.90;;;;;;5016482;28;20483;-83
2022/10/27 03:52:54;;;;;;;11.63;4.95;;;15.60;99.90;;;;;;5042990;28;20494;-83
2022/10/27 03:55:20;;;;;;;8.55;4.68;;;15.60;99.90;;;;;;5036078;28;20046;-83
2022/10/27 03:57:49;;;;;;;11.00;4.80;;;15.60;99.90;;;;;;5029127;28;20022;-83
2022/10/27 04:00:15;;;;;;;12.88;4.88;;;15.60;99.90;;;;;;5029779;28;20112;-83
2022/10/27 04:02:41;;;;;;;11.10;4.28;;;15.60;99.90;;;;;;5023784;28;20013;-83
2022/10/27 04:05:07;;;;;;;10.45;4.50;;;15.60;99.90;;;;;;5035963;28;20479;-83
2022/10/27 04:07:32;;;;;;;8.65;4.20;;;15.70;99.90;;;;;;4992597;28;20029;-83
2022/10/27 04:09:58;;;;;;;7.55;4.10;;;15.60;99.90;;;;;;5023357;28;20036;-83
2022/10/27 04:12:24;;;;;;;8.30;3.70;;;15.60;99.90;;;;;;5003528;28;20032;-82
2022/10/27 04:14:49;;;;;;;9.93;4.30;;;15.70;99.90;;;;;;5033950;28;20509;-83
2022/10/27 04:17:16;;;;;;;6.68;3.58;;;15.70;99.90;;;;;;5013723;28;20025;-83
2022/10/27 04:19:42;;;;;;;6.90;4.03;;;15.70;99.90;;;;;;5039372;28;20052;-83
2022/10/27 04:22:08;;;;;;;6.95;3.90;;;15.70;99.90;;;;;;5019160;28;20025;-83
2022/10/27 04:24:34;;;;;;;7.53;3.80;;;15.70;99.90;;;;;;5038247;28;20024;-83
2022/10/27 04:26:59;;;;;;;11.50;5.20;;;15.70;99.90;;;;;;5035538;28;20402;-83
2022/10/27 04:29:25;;;;;;;8.80;4.82;;;15.70;99.90;;;;;;5016484;28;20037;-83
2022/10/27 04:35:13;;;;;;;9.27;4.22;;;15.60;99.90;;;;;;5033958;28;20079;-83
2022/10/27 04:37:38;;;;;;;8.20;3.92;;;15.60;99.90;;;;;;5031141;28;20033;-83
2022/10/27 04:40:04;;;;;;;7.18;4.00;;;15.60;99.90;;;;;;5035450;28;20082;-83
2022/10/27 04:42:30;;;;;;;8.52;4.25;;;15.60;99.90;;;;;;5035279;28;20463;-83
2022/10/27 04:44:55;;;;;;;8.32;3.88;;;15.60;99.90;;;;;;5034747;28;20108;-83
2022/10/27 04:47:21;;;;;;;6.70;4.13;;;15.60;99.90;;;;;;5035394;28;20028;-83
2022/10/27 04:49:47;;;;;;;8.18;4.05;;;15.60;99.90;;;;;;5035314;28;20343;-82
2022/10/27 04:52:12;;;;;;;10.93;4.22;;;15.50;99.90;;;;;;5035247;28;20037;-83
2022/10/27 04:54:38;;;;;;;9.48;4.57;;;15.50;99.90;;;;;;5035584;28;20022;-83
2022/10/27 04:57:03;;;;;;;8.82;4.35;;;15.50;99.90;;;;;;5029680;28;20025;-83
2022/10/27 04:59:29;;;;;;;11.15;4.55;;;15.50;99.90;;;;;;5002550;28;20029;-83
2022/10/27 05:01:55;;;;;;;13.20;5.15;;;15.50;99.90;;;;;;5019059;28;20022;-83
2022/10/27 05:04:20;;;;;;;7.82;4.20;;;15.50;99.90;;;;;;5015585;28;20026;-83
2022/10/27 05:06:46;;;;;;;11.43;4.97;;;15.40;99.90;;;;;;5015136;28;20059;-83
2022/10/27 05:09:11;;;;;;;9.68;5.25;;;15.40;99.90;;;;;;5031260;28;20534;-83
2022/10/27 05:11:37;;;;;;;7.97;5.50;;;15.40;99.90;;;;;;5015036;28;20387;-83
2022/10/27 05:14:03;;;;;;;8.98;4.97;;;15.40;99.90;;;;;;5012985;28;20063;-83
2022/10/27 05:16:28;;;;;;;9.15;5.40;;;15.40;99.90;;;;;;5018391;28;20112;-83
2022/10/27 05:18:54;;;;;;;13.25;5.75;;;15.40;99.90;;;;;;5054475;28;20478;-83
2022/10/27 05:21:20;;;;;;;10.27;6.15;;;15.30;99.90;;;;;;5022220;28;20036;-83
2022/10/27 05:23:45;;;;;;;12.10;6.03;;;15.40;99.90;;;;;;5022758;28;20433;-83
2022/10/27 05:26:11;;;;;;;10.23;6.00;;;15.40;99.90;;;;;;5038758;28;20056;-83
2022/10/27 05:28:36;;;;;;;10.73;6.13;;;15.30;99.90;;;;;;5037090;23;20414;-84
2022/10/27 05:31:02;;;;;;;7.93;5.47;;;15.30;99.90;;;;;;5015896;28;20018;-84
2022/10/27 05:33:28;;;;;;;12.40;6.07;;;15.30;99.90;;;;;;5002693;28;20382;-84
2022/10/27 05:35:54;;;;;;;12.70;5.50;;;15.30;99.90;;;;;;5015643;28;20034;-85
2022/10/27 05:38:20;;;;;;;12.25;6.10;;;15.30;99.90;;;;;;5012609;28;20083;-84
2022/10/27 05:40:45;;;;;;;10.57;5.78;;;15.20;99.90;;;;;;5019001;28;20025;-85
2022/10/27 05:43:11;;;;;;;13.20;5.80;;;15.20;99.90;;;;;;4999505;28;20037;-84
2022/10/27 05:45:37;;;;;;;11.27;5.78;;;15.20;99.90;;;;;;4998562;28;20038;-84
2022/10/27 05:48:08;;;;;;;9.00;5.60;;;15.20;99.90;;;;;;4975466;28;20030;-84
2022/10/27 05:50:34;;;;;;;8.63;5.82;;;15.20;99.90;;;;;;5027972;28;20060;-84
2022/10/27 05:53:00;;;;;;;16.77;9.63;;;15.10;99.90;;;;;;5026666;28;20025;-84
2022/10/27 05:55:26;;;;;;;14.27;8.95;;;15.20;99.90;;;;;;5026432;28;20487;-85
2022/10/27 05:57:57;;;;;;;13.30;7.80;;;15.10;99.90;;;;;;5033139;28;20060;-85
2022/10/27 06:00:24;;;;;;;15.90;8.77;;;15.20;99.90;;;;;;5011345;28;20022;-84
2022/10/27 06:02:50;;;;;;;10.32;7.40;;;15.10;99.90;;;;;;5007204;28;20071;-84
2022/10/27 06:05:16;;;;;;;12.45;6.65;;;15.10;99.90;;;;;;5035803;28;20034;-86
2022/10/27 06:07:41;;;;;;;13.02;7.05;;;15.10;99.90;;;;;;5001295;28;20046;-85
2022/10/27 06:10:08;;;;;;;7.68;5.53;;;15.10;99.90;;;;;;5018146;28;20491;-85
2022/10/27 06:12:33;;;;;;;10.88;6.07;;;15.00;99.90;;;;;;5018256;28;20021;-85
2022/10/27 06:14:59;;;;;;;11.75;6.10;;;15.00;99.90;;;;;;5001949;28;20048;-86
2022/10/27 06:17:25;;;;;;;15.40;6.40;;;15.00;99.90;;;;;;4985021;28;20356;-86
2022/10/27 06:19:50;;;;;;;10.23;6.40;;;15.00;99.90;;;;;;4993453;28;20030;-85
2022/10/27 06:22:16;;;;;;;11.45;6.43;;;15.00;99.90;;;;;;4999201;28;20026;-86
2022/10/27 06:24:41;;;;;;;12.70;6.28;;;15.00;99.90;;;;;;5001861;28;20032;-85
2022/10/27 06:27:07;;;;;;;11.20;6.03;;;15.00;99.90;;;;;;5000823;28;20045;-85
2022/10/27 06:29:33;;;;;;;14.10;6.55;;;15.00;99.90;;;;;;5017637;28;20065;-86
2022/10/27 06:31:58;;;;;;;10.82;6.40;;;15.00;99.90;;;;;;5031699;28;20379;-86
2022/10/27 06:34:24;;;;;;;12.32;6.65;;;15.00;99.90;;;;;;4982662;28;20113;-86
2022/10/27 06:36:50;;;;;;;11.57;5.90;;;15.00;99.90;;;;;;5013683;28;20538;-86
2022/10/27 06:39:15;;;;;;;9.77;5.97;;;14.90;99.90;;;;;;5001705;28;20387;-85
2022/10/27 06:41:41;;;;;;;10.98;6.70;;;14.90;99.90;;;;;;5001513;28;20474;-85
2022/10/27 06:44:07;;;;;;;12.65;7.07;;;14.90;99.90;;;;;;4995987;28;20026;-86
2022/10/27 06:46:33;;;;;;;11.20;6.40;;;14.90;99.90;;;;;;5008974;28;20033;-86
2022/10/27 06:49:00;;;;;;;12.20;6.28;;;14.90;99.90;;;;;;4978435;28;20036;-86
2022/10/27 06:51:25;;;;;;;13.55;7.22;;;14.80;99.90;;;;;;5011850;28;20025;-86
2022/10/27 06:53:51;;;;;;;11.75;6.50;;;14.90;99.90;;;;;;5007146;28;20018;-85
2022/10/27 06:56:18;;;;;;;11.40;6.10;;;14.90;99.90;;;;;;4993884;28;20475;-85
2022/10/27 06:58:46;;;;;;;11.02;6.07;;;14.80;99.90;;;;;;4988006;28;20037;-86
2022/10/27 07:01:12;;;;;;;13.25;6.72;;;14.90;99.90;;;;;;5010452;28;20495;-86
2022/10/27 07:03:38;;;;;;;11.70;6.50;;;14.90;99.90;;;;;;4997337;28;20030;-86
2022/10/27 07:06:05;;;;;;;14.73;6.85;;;14.90;99.90;;;;;;5021619;28;20480;-85
2022/10/27 07:08:30;;;;;;;10.50;5.93;;;14.80;99.90;;;;;;4981390;28;20557;-86
2022/10/27 07:10:56;;;;;;;12.30;5.88;;;14.90;99.90;;;;;;4996604;28;20054;-85
2022/10/27 07:13:22;;;;;;;14.73;6.63;;;14.90;99.90;;;;;;4997103;28;20061;-86
2022/10/27 07:15:47;;;;;;;9.82;6.15;;;14.80;99.90;;;;;;4995991;28;20498;-86
2022/10/27 07:18:13;;;;;;;10.60;6.13;;;14.90;99.90;;;;;;5003219;28;20510;-86
2022/10/27 07:21:00;;;;;;;15.18;6.43;;;14.90;99.90;;;;;;5018628;28;20033;-86
2022/10/27 07:23:26;;;;;;;10.30;5.93;;;14.90;99.90;;;;;;5028780;28;20037;-86
2022/10/27 07:25:52;;;;;;;13.98;6.30;;;14.80;99.90;;;;;;4977624;28;20028;-86
2022/10/27 07:28:18;;;;;;;17.55;5.70;;;14.90;99.90;;;;;;4985167;28;20486;-86
2022/10/27 07:30:43;;;;;;;11.48;6.18;;;14.90;99.90;;;;;;5000351;28;20053;-86
2022/10/27 07:33:12;;;;;;;11.85;6.00;;;14.90;99.90;;;;;;4991818;28;20029;-86
2022/10/27 07:35:38;;;;;;;12.63;5.88;;;14.90;99.90;;;;;;5014960;28;20044;-86
2022/10/27 07:38:05;;;;;;;10.93;5.72;;;14.90;99.90;;;;;;5037731;28;20030;-86
2022/10/27 07:40:31;;;;;;;14.77;6.97;;;14.90;99.90;;;;;;5019772;28;20017;-86
2022/10/27 07:42:58;;;;;;;11.75;6.22;;;14.90;99.90;;;;;;5017039;28;20033;-86
2022/10/27 07:45:25;;;;;;;10.52;6.32;;;14.90;99.90;;;;;;5002678;28;20044;-86
2022/10/27 07:47:53;;;;;;;10.95;5.70;;;14.90;99.90;;;;;;5017155;28;20029;-87
2022/10/27 07:50:26;;;;;;;10.77;6.18;;;14.90;99.90;;;;;;5000715;28;20030;-86
2022/10/27 07:52:52;;;;;;;12.10;5.88;;;14.90;99.90;;;;;;5000953;28;20072;-87
2022/10/27 07:55:22;;;;;;;12.27;6.10;;;15.00;99.90;;;;;;5018079;28;20041;-86
2022/10/27 07:58:01;;;;;;;8.65;5.65;;;15.00;99.90;;;;;;5016239;28;20033;-86
2022/10/27 08:00:28;;;;;;;19.67;6.93;;;15.00;99.90;;;;;;5018893;28;20023;-86
2022/10/27 08:02:54;;;;;;;11.95;6.32;;;15.00;99.90;;;;;;5016082;28;20017;-86
2022/10/27 08:05:20;;;;;;;14.63;6.60;;;15.00;99.90;;;;;;5033511;28;20017;-86
2022/10/27 08:07:45;;;;;;;12.55;7.07;;;15.00;99.90;;;;;;5029687;28;20075;-86
2022/10/27 08:10:11;;;;;;;12.32;7.18;;;15.00;99.90;;;;;;4983870;28;20025;-87
2022/10/27 08:12:43;;;;;;;14.75;7.47;;;15.10;99.90;;;;;;5014457;28;20037;-86
2022/10/27 08:15:10;;;;;;;12.60;7.32;;;15.10;99.90;;;;;;4981321;28;20097;-86
2022/10/27 08:17:37;;;;;;;11.00;6.85;;;15.10;99.90;;;;;;4991113;28;20029;-86
2022/10/27 08:20:04;;;;;;;11.15;6.57;;;15.10;99.90;;;;;;4997825;28;20546;-86
2022/10/27 08:22:30;;;;;;;9.45;6.43;;;15.10;99.90;;;;;;5004558;28;20018;-86
2022/10/27 08:24:55;;;;;;;9.75;5.78;;;15.10;99.90;;;;;;5008391;28;20032;-87
2022/10/27 08:27:21;;;;;;;12.02;5.68;;;15.20;99.90;;;;;;5012985;28;20078;-86
2022/10/27 08:29:47;;;;;;;11.90;6.30;;;15.20;99.90;;;;;;4996450;28;20053;-86
2022/10/27 08:32:15;;;;;;;14.35;6.18;;;15.20;99.90;;;;;;4999542;28;20037;-86
2022/10/27 08:34:41;;;;;;;12.07;5.70;;;15.30;99.90;;;;;;5015189;28;20033;-86
2022/10/27 08:37:06;;;;;;;9.35;5.10;;;15.30;99.90;;;;;;5015418;28;20433;-87
2022/10/27 08:39:32;;;;;;;10.20;4.75;;;15.40;99.90;;;;;;4998756;28;20034;-87
2022/10/27 08:42:03;;;;;;;13.88;5.05;;;15.40;99.90;;;;;;4982024;28;20478;-87
2022/10/27 08:44:40;;;;;;;10.15;4.13;;;15.50;99.90;;;;;;5015632;28;20064;-87
2022/10/27 08:47:21;;;;;;;8.85;4.45;;;15.50;99.90;;;;;;5015552;28;20029;-85
2022/10/27 08:49:48;;;;;;;;;;;15.60;99.90;;;;;;5015922;28;20033;-85
2022/10/27 08:52:26;;;;;;;6.80;3.72;;;15.60;99.90;;;;;;5014844;28;19909;-85
2022/10/27 08:54:59;;;;;;;7.57;3.53;;;15.60;99.90;;;;;;5032276;28;20037;-85
2022/10/27 08:57:29;;;;;;;7.72;3.95;;;15.60;99.90;;;;;;5021653;28;20026;-84
2022/10/27 08:59:56;;;;;;;7.35;3.58;;;15.70;99.90;;;;;;5021106;28;20029;-85
2022/10/27 09:02:47;;;;;;;10.45;4.30;;;15.70;99.90;;;;;;5017661;28;20030;-85
2022/10/27 09:05:40;;;;;;;7.22;3.42;;;15.80;99.90;;;;;;5021677;28;20029;-84
2022/10/27 09:08:17;;;;;;;6.85;3.30;;;15.80;99.90;;;;;;5013542;28;20022;-85
2022/10/27 09:11:01;;;;;;;8.13;3.20;;;15.90;99.90;;;;;;5021524;28;20044;-85
2022/10/27 09:13:33;;;;;;;7.28;3.38;;;15.90;99.90;;;;;;5042396;28;20025;-85
2022/10/27 09:16:06;;;;;;;12.50;4.00;;;16.00;99.90;;;;;;5015235;28;20379;-84
2022/10/27 09:18:55;;;;;;;7.78;2.90;;;16.00;99.90;;;;;;5015605;28;20094;-84
2022/10/27 09:21:22;;;;;;;4.55;2.30;;;16.00;99.90;;;;;;5017677;28;20486;-85
2022/10/27 09:23:55;;;;;;;4.05;2.13;;;16.10;99.90;;;;;;5014205;28;20018;-84
2022/10/27 09:26:35;;;;;;;5.72;2.60;;;16.10;99.90;;;;;;5017246;28;20028;-86
2022/10/27 09:29:09;;;;;;;4.32;2.13;;;16.20;99.90;;;;;;5021714;28;20033;-87
2022/10/27 09:31:47;;;;;;;6.45;2.35;;;16.20;99.90;;;;;;5007978;28;20021;-87
2022/10/27 09:37:39;;;;;;;9.45;2.22;;;16.40;99.90;;;;;;5035832;28;20167;-87
2022/10/27 09:40:15;;;;;;;4.27;1.93;;;16.50;99.90;;;;;;5006446;28;20013;-87
2022/10/27 09:42:41;;;;;;;4.25;2.20;;;16.50;99.90;;;;;;5039657;28;20025;-87
2022/10/27 09:45:18;;;;;;;6.50;2.53;;;16.60;99.90;;;;;;5039477;28;20028;-87
2022/10/27 09:47:52;;;;;;;6.93;1.98;;;16.70;99.90;;;;;;5007478;28;20026;-86
2022/10/27 09:50:20;;;;;;;4.78;1.58;;;16.80;99.90;;;;;;5021753;28;20026;-87
2022/10/27 09:52:47;;;;;;;5.90;1.70;;;16.90;99.90;;;;;;5021289;28;20021;-87
2022/10/27 09:55:14;;;;;;;4.18;1.48;;;17.00;99.90;;;;;;4986120;28;20037;-87
2022/10/27 09:57:43;;;;;;;5.22;1.90;;;17.00;99.90;;;;;;5016046;28;20458;-87
2022/10/27 10:00:24;;;;;;;6.38;1.70;;;17.10;99.90;;;;;;5021742;28;20032;-87
2022/10/27 10:03:01;;;;;;;;;;;17.20;99.90;;;;;;5021977;28;20021;-87
2022/10/27 10:05:35;;;;;;;4.45;2.00;;;17.20;99.90;;;;;;5018406;28;19905;-87
2022/10/27 10:08:12;;;;;;;4.18;1.48;;;17.30;99.90;;;;;;5018288;28;20029;-87
2022/10/27 10:10:39;;;;;;;4.45;1.58;;;17.30;99.90;;;;;;5035989;28;20057;-87
2022/10/27 10:13:12;;;;;;;4.85;1.50;;;17.40;99.90;;;;;;5018130;28;20022;-87
2022/10/27 10:15:44;;;;;;;3.60;1.33;;;17.50;99.90;;;;;;5018576;28;20033;-87
2022/10/27 10:18:26;;;;;;;5.93;1.73;;;17.50;99.90;;;;;;5018402;28;20486;-87
2022/10/27 10:20:58;;;;;;;4.05;1.60;;;17.60;99.90;;;;;;5018156;28;20418;-87
2022/10/27 10:23:26;;;;;;;4.88;1.50;;;17.70;99.90;;;;;;5018010;28;20061;-87
2022/10/27 10:25:55;;;;;;;2.67;1.27;;;17.70;99.90;;;;;;5035672;28;20017;-87
2022/10/27 10:28:39;;;;;;;2.08;1.13;;;17.80;99.90;;;;;;5022133;28;20057;-85
2022/10/27 10:31:08;;;;;;;6.88;1.50;;;17.90;99.90;;;;;;4998318;28;20084;-86
2022/10/27 10:33:43;;;;;;;3.30;1.40;;;18.00;99.90;;;;;;4998175;28;20065;-86
2022/10/27 10:36:25;;;;;;;4.25;1.60;;;18.10;99.90;;;;;;4998234;28;20018;-86
2022/10/27 10:38:55;;;;;;;3.92;1.50;;;18.20;99.90;;;;;;5015812;28;20500;-86
2022/10/27 10:41:22;;;;;;;4.78;1.85;;;18.30;99.90;;;;;;4998137;28;20029;-86
2022/10/27 10:44:15;;;;;;;4.07;1.40;;;18.40;99.90;;;;;;4998945;28;20030;-86
2022/10/27 10:46:53;;;;;;;3.72;1.58;;;18.50;99.90;;;;;;5016153;28;20045;-86
2022/10/27 10:49:22;;;;;;;6.22;1.42;;;18.60;99.90;;;;;;5031340;28;20045;-87
2022/10/27 10:51:59;;;;;;;5.43;1.75;;;18.60;99.90;;;;;;4997865;28;20022;-86
2022/10/27 10:54:36;;;;;;;5.95;1.60;;;18.70;99.90;;;;;;5015544;28;20072;-86
2022/10/27 10:57:02;;;;;;;5.05;1.45;;;18.70;99.90;;;;;;5015347;28;20033;-87
2022/10/27 10:59:30;;;;;;;7.57;1.77;;;18.80;99.90;;;;;;5015024;28;20425;-87
2022/10/27 11:02:05;;;;;;;8.68;1.92;;;18.90;99.90;;;;;;5017541;28;20045;-86
2022/10/27 11:04:50;;;;;;;3.25;1.30;;;18.90;99.90;;;;;;5017340;28;20029;-86
2022/10/27 11:07:19;;;;;;;7.20;2.08;;;19.00;99.90;;;;;;4985076;28;20072;-86
2022/10/27 11:09:50;;;;;;;3.78;1.38;;;19.00;99.90;;;;;;5003210;28;20110;-86
2022/10/27 11:12:34;;;;;;;4.15;1.58;;;19.10;99.90;;;;;;4998473;28;20545;-86
2022/10/27 11:15:15;;;;;;;4.70;1.42;;;19.10;99.90;;;;;;4997448;28;20021;-84
2022/10/27 11:17:42;;;;;;;6.43;1.23;;;19.20;99.90;;;;;;4997113;28;20022;-83
2022/10/27 11:20:18;;;;;;;4.45;1.48;;;19.30;99.90;;;;;;5002467;28;20037;-84
2022/10/27 11:22:44;;;;;;;3.40;1.42;;;19.30;99.90;;;;;;5017350;28;20026;-84
2022/10/27 11:25:17;;;;;;;4.97;1.85;;;19.40;99.90;;;;;;4999750;28;20372;-84
2022/10/27 11:27:56;;;;;;;5.72;1.52;;;19.50;99.90;;;;;;5004577;28;20022;-85
2022/10/27 11:30:26;;;;;;;7.30;1.80;;;19.50;99.90;;;;;;5034584;28;20478;-84
2022/10/27 11:33:14;;;;;;;6.00;1.75;;;19.60;99.90;;;;;;5017003;28;20494;-85
2022/10/27 11:35:46;;;;;;;4.72;2.10;;;19.60;99.90;;;;;;5020929;28;20466;-85
2022/10/27 11:38:36;;;;;;;4.65;1.50;;;19.70;99.90;;;;;;5004635;28;20080;-84
2022/10/27 11:41:16;;;;;;;4.13;1.50;;;19.70;99.90;;;;;;5022264;28;20022;-84
2022/10/27 11:44:06;;;;;;;7.88;1.50;;;19.80;99.90;;;;;;5016730;28;20041;-84
2022/10/27 11:46:59;;;;;;;6.57;1.70;;;19.80;99.90;;;;;;5008140;28;20034;-84
2022/10/27 11:49:46;;;;;;;5.95;1.50;;;19.90;99.90;;;;;;5015462;28;20032;-84
2022/10/27 11:52:12;;;;;;;5.65;1.60;;;19.90;99.90;;;;;;5034630;28;20055;-84
2022/10/27 11:54:37;;;;;;;7.32;1.65;;;20.00;99.90;;;;;;5016256;28;20111;-84
2022/10/27 11:57:09;;;;;;;6.45;1.58;;;20.00;99.90;;;;;;5033967;28;20033;-84
2022/10/27 12:00:10;;;;;;;6.80;1.75;;;20.10;99.90;;;;;;5016181;28;20064;-84
2022/10/27 12:02:48;;;;;;;5.20;1.60;;;20.10;99.90;;;;;;5034014;28;20473;-85
2022/10/27 12:05:24;;;;;;;7.72;1.85;;;20.10;99.90;;;;;;5016132;28;20029;-84
2022/10/27 12:08:05;;;;;;;6.10;2.05;;;20.20;99.90;;;;;;5033617;28;20451;-84
2022/10/27 12:10:31;;;;;;;;;;;20.20;99.90;;;;;;5016479;28;20032;-84
2022/10/27 12:13:07;;;;;;;4.20;1.40;;;20.20;99.90;;;;;;5015828;28;19909;-83
2022/10/27 12:15:48;;;;;;;5.70;1.50;;;20.20;99.90;;;;;;5033797;28;20025;-84
2022/10/27 12:18:33;;;;;;;5.00;1.50;;;20.30;99.90;;;;;;5033590;28;20021;-84
2022/10/27 12:21:20;;;;;;;5.72;1.45;;;20.30;99.90;;;;;;5002714;28;20026;-84
2022/10/27 12:23:57;;;;;;;7.18;2.03;;;20.40;99.90;;;;;;5022560;28;20048;-84
2022/10/27 12:26:39;;;;;;;5.57;1.70;;;20.40;99.90;;;;;;5015882;28;20018;-84
2022/10/27 12:29:07;;;;;;;5.38;1.55;;;20.50;99.90;;;;;;5014793;28;20558;-84
2022/10/27 12:31:36;;;;;;;6.57;1.60;;;20.50;99.90;;;;;;5013288;28;20426;-84
2022/10/27 12:34:05;;;;;;;7.00;1.40;;;20.50;99.90;;;;;;5005110;28;20159;-84
2022/10/27 12:36:33;;;;;;;8.15;1.98;;;20.60;99.90;;;;;;5033310;28;20014;-84
2022/10/27 12:39:11;;;;;;;6.35;1.67;;;20.60;99.90;;;;;;5033373;28;20021;-84
2022/10/27 12:41:48;;;;;;;5.50;1.42;;;20.60;99.90;;;;;;5033488;28;20383;-83
2022/10/27 12:44:32;;;;;;;3.92;1.60;;;20.70;99.90;;;;;;5033635;28;20101;-84
2022/10/27 12:47:19;;;;;;;4.20;1.40;;;20.70;99.90;;;;;;5015873;28;20395;-84
2022/10/27 12:49:54;;;;;;;4.95;1.60;;;20.70;99.90;;;;;;5015722;28;20048;-83
2022/10/27 12:52:25;;;;;;;6.32;1.88;;;20.80;99.90;;;;;;5015856;28;20379;-84
2022/10/27 12:55:23;;;;;;;5.13;1.45;;;20.80;99.90;;;;;;5033352;28;20083;-84
2022/10/27 12:58:01;;;;;;;4.18;1.30;;;20.80;99.90;;;;;;5015675;28;20051;-84
2022/10/27 13:00:38;;;;;;;4.07;1.30;;;20.80;99.90;;;;;;5015562;28;20068;-84
2022/10/27 13:03:21;;;;;;;6.72;1.58;;;20.80;99.90;;;;;;5015462;28;20071;-85
2022/10/27 13:06:15;;;;;;;6.72;2.17;;;20.80;99.90;;;;;;5015534;28;20025;-86
2022/10/27 13:09:22;;;;;;;5.32;1.73;;;20.80;99.90;;;;;;5005098;28;20029;-86
2022/10/27 13:12:01;;;;;;;6.78;1.58;;;20.80;99.90;;;;;;4960763;28;20128;-85
2022/10/27 13:14:54;;;;;;;3.45;1.50;;;20.80;99.90;;;;;;5033040;28;20022;-84
2022/10/27 13:17:45;;;;;;;3.92;1.85;;;20.80;99.90;;;;;;5033031;28;20494;-84
2022/10/27 13:20:29;;;;;;;;;;;20.90;99.90;;;;;;5016241;28;20035;-84
2022/10/27 13:23:02;;;;;;;7.72;1.80;;;20.80;99.90;;;;;;5033460;28;19905;-83
2022/10/27 13:25:36;;;;;;;6.85;1.65;;;20.80;99.90;;;;;;5015410;28;20045;-84
2022/10/27 13:28:11;;;;;;;3.95;1.70;;;20.90;99.90;;;;;;5014914;28;20046;-84
2022/10/27 13:30:39;;;;;;;7.85;1.95;;;20.80;99.90;;;;;;5015314;28;20076;-84